Terminal Aerodrome Forecast
Issued by NWS

Home | Current Version | Previous Version | Text Only | Print | Product List | Glossary On
Versions: 1 2 3 4 5 6 7 8 9 10 11 12 13 14 15 16 17 18 19
000
FTUS44 KLIX 301726
TAFMSY
TAF
KMSY 301726Z 3018/3118 VRB04KT 6SM RA SCT020 OVC080
     FM302000 17008KT P6SM BKN050
     FM310000 21005KT P6SM SCT140
     FM310500 27006KT P6SM FEW200=

USA.gov is the U.S. government's official web portal to all federal, state and local government web resources and services.